Time;durP1;ratioP1;P1;durP2;ratioP2;P2;SDS_P1;SDS_P2;PMS_P1;PMS_P2;Temp;Humidity;BMP_temperature;BMP_pressure;BME280_temperature;BME280_humidity;BME280_pressure;Samples;Min_cycle;Max_cycle;Signal;HPM_P1;HPM_P2
2021/06/27 00:00:00;;;;;;;51.92;37.35;;;;;;;17.24;100.00;101811.97;3560838;40;20041;-63
2021/06/27 00:02:26;;;;;;;58.28;38.25;;;;;;;17.17;100.00;101813.59;3560789;40;20083;-63
2021/06/27 00:04:55;;;;;;;61.15;38.20;;;;;;;17.14;100.00;101814.75;3561539;40;20060;-62
2021/06/27 00:07:22;;;;;;;54.95;37.63;;;;;;;17.16;100.00;101804.56;3561288;40;20073;-62
2021/06/27 00:09:50;;;;;;;54.50;37.92;;;;;;;17.21;100.00;101811.41;3560324;40;20379;-63
2021/06/27 00:12:16;;;;;;;61.33;38.03;;;;;;;17.19;100.00;101818.88;3560462;40;20586;-63
2021/06/27 00:14:43;;;;;;;54.75;37.97;;;;;;;17.19;100.00;101802.56;3562193;40;20101;-63
2021/06/27 00:17:09;;;;;;;60.15;38.80;;;;;;;17.28;100.00;101812.50;3560647;40;20048;-62
2021/06/27 00:19:36;;;;;;;62.00;38.03;;;;;;;17.32;100.00;101813.91;3561774;40;20058;-63
2021/06/27 00:22:03;;;;;;;61.55;38.17;;;;;;;17.31;100.00;101801.31;3560788;40;20363;-63
2021/06/27 00:24:29;;;;;;;54.97;37.05;;;;;;;17.37;100.00;101803.38;3561759;40;20045;-62
2021/06/27 00:26:57;;;;;;;56.63;37.53;;;;;;;17.35;100.00;101813.59;3561801;40;20074;-62
2021/06/27 00:29:24;;;;;;;54.10;36.95;;;;;;;17.34;100.00;101809.16;3559833;40;20068;-62
2021/06/27 00:31:50;;;;;;;56.28;37.30;;;;;;;17.29;100.00;101812.34;3561498;40;20073;-62
2021/06/27 00:34:17;;;;;;;59.00;39.28;;;;;;;17.31;100.00;101812.19;3559540;40;20063;-62
2021/06/27 00:36:43;;;;;;;56.88;37.20;;;;;;;17.33;100.00;101812.91;3561209;40;20041;-62
2021/06/27 00:39:10;;;;;;;61.15;38.58;;;;;;;17.34;100.00;101812.75;3561338;40;20078;-62
2021/06/27 00:41:36;;;;;;;64.45;41.70;;;;;;;17.42;100.00;101809.22;3560986;40;20050;-62
2021/06/27 00:44:05;;;;;;;62.42;39.53;;;;;;;17.39;100.00;101814.09;3559885;40;20049;-62
2021/06/27 00:46:32;;;;;;;61.78;38.08;;;;;;;17.37;100.00;101808.81;3561357;40;20053;-62
2021/06/27 00:48:58;;;;;;;61.35;37.97;;;;;;;17.36;100.00;101812.59;3561313;40;20061;-62
2021/06/27 00:51:25;;;;;;;65.65;40.97;;;;;;;17.42;100.00;101817.38;3561084;40;20045;-62
2021/06/27 00:53:52;;;;;;;55.22;38.35;;;;;;;17.44;100.00;101801.75;3561873;40;20075;-62
2021/06/27 00:56:19;;;;;;;58.95;39.83;;;;;;;17.49;100.00;101807.59;3559409;40;20139;-62
2021/06/27 00:58:46;;;;;;;61.15;39.50;;;;;;;17.42;100.00;101809.22;3560984;40;20125;-62
2021/06/27 01:01:13;;;;;;;66.10;40.75;;;;;;;17.49;100.00;101798.53;3559656;40;20058;-63
2021/06/27 01:03:40;;;;;;;60.40;39.75;;;;;;;17.50;100.00;101801.13;3560347;40;20057;-62
2021/06/27 01:06:07;;;;;;;63.08;41.30;;;;;;;17.50;100.00;101795.69;3559247;40;20052;-63
2021/06/27 01:08:33;;;;;;;69.20;42.13;;;;;;;17.47;100.00;101790.53;3560957;40;20038;-62
2021/06/27 01:11:00;;;;;;;66.15;42.13;;;;;;;17.43;100.00;101782.84;3624881;23;20072;-62
2021/06/27 01:13:26;;;;;;;68.60;42.92;;;;;;;17.36;100.00;101793.53;3600978;39;20044;-63
2021/06/27 01:15:54;;;;;;;70.05;42.90;;;;;;;17.31;100.00;101790.41;3601222;39;20385;-62
2021/06/27 01:18:22;;;;;;;63.35;40.60;;;;;;;17.37;100.00;101789.78;3600773;39;20313;-62
2021/06/27 01:20:48;;;;;;;68.13;42.50;;;;;;;17.39;100.00;101798.66;3601231;39;20058;-62
2021/06/27 01:23:18;;;;;;;61.17;39.50;;;;;;;17.37;100.00;101794.38;3600790;39;20429;-62
2021/06/27 01:25:48;;;;;;;65.10;40.78;;;;;;;17.39;100.00;101785.06;3601147;39;20040;-63
2021/06/27 01:28:15;;;;;;;52.30;35.88;;;;;;;17.35;100.00;101783.66;3600681;39;20475;-62
2021/06/27 01:30:42;;;;;;;58.25;38.53;;;;;;;17.46;100.00;101785.25;3600902;39;20040;-63
2021/06/27 01:33:13;;;;;;;56.38;37.10;;;;;;;17.43;100.00;101783.72;3600110;39;20409;-62
2021/06/27 01:35:40;;;;;;;61.55;37.95;;;;;;;17.36;100.00;101788.09;3601176;39;20043;-63
2021/06/27 01:38:07;;;;;;;64.03;40.15;;;;;;;17.30;100.00;101786.84;3599862;39;20336;-62
2021/06/27 01:40:35;;;;;;;62.28;40.30;;;;;;;17.31;100.00;101780.41;3601275;39;20050;-63
2021/06/27 01:43:06;;;;;;;60.85;37.47;;;;;;;17.35;100.00;101794.53;3600319;39;20294;-63
2021/06/27 01:45:33;;;;;;;66.75;38.97;;;;;;;17.34;100.00;101793.69;3600178;39;20056;-64
2021/06/27 01:48:01;;;;;;;62.60;40.53;;;;;;;17.35;100.00;101791.81;3600769;39;20091;-63
2021/06/27 01:50:29;;;;;;;63.43;39.27;;;;;;;17.34;100.00;101796.41;3600427;39;20058;-62
2021/06/27 01:52:58;;;;;;;60.87;39.73;;;;;;;17.32;100.00;101792.13;3600986;39;20048;-63
2021/06/27 01:55:25;;;;;;;57.20;38.15;;;;;;;17.25;100.00;101788.34;3600514;39;20060;-62
2021/06/27 01:57:54;;;;;;;61.92;39.78;;;;;;;17.20;100.00;101783.38;3600565;39;20318;-62
2021/06/27 02:00:22;;;;;;;57.13;37.95;;;;;;;17.11;100.00;101777.00;3599274;39;20397;-62
2021/06/27 02:02:49;;;;;;;59.92;37.17;;;;;;;17.08;100.00;101780.03;3601147;39;20351;-63
2021/06/27 02:05:15;;;;;;;64.70;37.80;;;;;;;17.11;100.00;101782.44;3598964;39;20060;-63
2021/06/27 02:07:42;;;;;;;57.33;37.20;;;;;;;17.08;100.00;101782.75;3601700;39;20417;-63
2021/06/27 02:10:10;;;;;;;60.50;37.55;;;;;;;17.11;100.00;101779.72;3600023;39;20056;-62
2021/06/27 02:12:37;;;;;;;56.97;36.45;;;;;;;17.12;100.00;101770.56;3600044;39;20114;-63
2021/06/27 02:15:08;;;;;;;58.42;38.63;;;;;;;17.10;100.00;101767.13;3598757;39;20048;-63
2021/06/27 02:17:35;;;;;;;58.63;35.92;;;;;;;17.11;100.00;101763.41;3599102;39;20060;-63
2021/06/27 02:20:01;;;;;;;54.50;36.92;;;;;;;17.11;100.00;101763.41;3599517;39;20325;-62
2021/06/27 02:22:27;;;;;;;56.28;36.13;;;;;;;17.15;100.00;101753.91;3600443;39;20118;-62
2021/06/27 02:24:54;;;;;;;59.30;36.97;;;;;;;17.09;100.00;101765.44;3600707;39;20054;-63
2021/06/27 02:27:20;;;;;;;54.95;37.30;;;;;;;17.12;100.00;101765.13;3600599;39;20052;-62
2021/06/27 02:29:47;;;;;;;58.65;37.75;;;;;;;17.07;100.00;101766.59;3600335;39;20044;-62
2021/06/27 02:32:15;;;;;;;60.83;38.25;;;;;;;16.95;100.00;101771.41;3599971;39;20046;-62
2021/06/27 02:34:41;;;;;;;58.60;37.53;;;;;;;16.86;100.00;101769.56;3599510;39;20048;-63
2021/06/27 02:37:08;;;;;;;63.92;39.72;;;;;;;16.88;100.00;101768.44;3600267;39;20063;-63
2021/06/27 02:39:34;;;;;;;65.45;38.00;;;;;;;16.90;100.00;101773.72;3600576;39;20032;-62
2021/06/27 02:42:01;;;;;;;61.85;39.17;;;;;;;16.81;100.00;101764.59;3600360;39;20036;-62
2021/06/27 02:44:27;;;;;;;55.28;36.78;;;;;;;16.76;100.00;101759.66;3600174;39;20054;-63
2021/06/27 02:46:53;;;;;;;53.38;35.08;;;;;;;16.74;100.00;101758.97;3600606;39;20039;-62
2021/06/27 02:49:23;;;;;;;60.05;35.83;;;;;;;16.76;100.00;101761.53;3598123;39;20070;-63
2021/06/27 02:51:50;;;;;;;54.70;35.42;;;;;;;16.72;100.00;101763.69;3600376;39;20044;-62
2021/06/27 02:54:16;;;;;;;52.35;34.13;;;;;;;16.66;100.00;101764.28;3599688;39;20052;-62
2021/06/27 02:56:43;;;;;;;56.88;37.30;;;;;;;16.51;100.00;101763.97;3600580;39;20136;-63
2021/06/27 02:59:09;;;;;;;56.22;36.08;;;;;;;16.45;100.00;101760.00;3599746;39;20062;-63
2021/06/27 03:01:36;;;;;;;58.22;37.33;;;;;;;16.43;100.00;101759.31;3599917;39;20137;-63
2021/06/27 03:04:02;;;;;;;60.03;35.67;;;;;;;16.38;100.00;101763.47;3599955;39;20080;-64
2021/06/27 03:06:30;;;;;;;57.05;36.47;;;;;;;16.34;100.00;101753.94;3600361;39;20294;-63
2021/06/27 03:08:56;;;;;;;59.10;37.40;;;;;;;16.33;100.00;101758.50;3600469;39;20374;-64
2021/06/27 03:11:23;;;;;;;58.40;38.08;;;;;;;16.32;100.00;101755.94;3599794;39;20043;-64
2021/06/27 03:13:49;;;;;;;56.80;35.30;;;;;;;16.29;100.00;101759.81;3599961;39;20047;-63
2021/06/27 03:16:16;;;;;;;59.33;36.35;;;;;;;16.23;100.00;101757.72;3600063;39;20051;-64
2021/06/27 03:18:42;;;;;;;51.97;33.67;;;;;;;16.25;100.00;101750.25;3600466;39;20050;-63
2021/06/27 03:21:09;;;;;;;54.45;34.78;;;;;;;16.19;100.00;101756.31;3600091;39;20052;-64
2021/06/27 03:23:36;;;;;;;58.03;37.53;;;;;;;16.21;100.00;101751.56;3599599;39;20042;-63
2021/06/27 03:26:03;;;;;;;56.50;36.55;;;;;;;16.27;100.00;101748.25;3599716;39;20074;-64
2021/06/27 03:28:33;;;;;;;52.45;34.40;;;;;;;16.28;100.00;101745.38;3600326;39;20073;-63
2021/06/27 03:31:00;;;;;;;57.33;37.03;;;;;;;16.19;100.00;101745.44;3599939;39;20075;-64
2021/06/27 03:33:26;;;;;;;54.42;34.92;;;;;;;16.23;100.00;101746.84;3599818;39;20055;-63
2021/06/27 03:35:53;;;;;;;54.80;35.92;;;;;;;16.28;100.00;101739.97;3600383;39;20051;-63
2021/06/27 03:38:24;;;;;;;62.70;37.15;;;;;;;16.19;100.00;101735.41;3599902;39;20039;-64
2021/06/27 03:40:52;;;;;;;60.72;38.28;;;;;;;16.11;100.00;101721.75;3600201;39;20048;-64
2021/06/27 03:43:19;;;;;;;61.20;37.78;;;;;;;16.14;100.00;101732.31;3599448;39;20043;-63
2021/06/27 03:45:46;;;;;;;57.70;35.50;;;;;;;16.17;100.00;101732.00;3599790;39;20046;-63
2021/06/27 03:48:12;;;;;;;59.88;36.40;;;;;;;16.17;100.00;101731.16;3599160;39;20422;-64
2021/06/27 03:50:39;;;;;;;58.92;36.05;;;;;;;16.18;100.00;101727.41;3599627;39;20046;-64
2021/06/27 03:53:06;;;;;;;62.63;38.63;;;;;;;16.09;100.00;101730.06;3599825;39;20071;-63
2021/06/27 03:55:33;;;;;;;59.28;38.50;;;;;;;16.15;100.00;101727.72;3599446;39;20406;-63
2021/06/27 03:58:01;;;;;;;59.08;37.00;;;;;;;16.17;100.00;101728.44;3599498;39;20070;-63
2021/06/27 04:00:27;;;;;;;61.72;37.47;;;;;;;16.18;100.00;101728.28;3599009;39;20442;-63
2021/06/27 04:02:54;;;;;;;63.22;39.95;;;;;;;16.24;100.00;101729.56;3599713;39;20053;-63
2021/06/27 04:05:21;;;;;;;61.95;38.63;;;;;;;16.26;100.00;101722.09;3597395;39;20140;-63
2021/06/27 04:07:47;;;;;;;57.83;36.83;;;;;;;16.33;100.00;101715.03;3600150;39;20047;-63
2021/06/27 04:10:14;;;;;;;61.50;40.45;;;;;;;16.30;100.00;101720.78;3601263;39;20117;-63
2021/06/27 04:12:40;;;;;;;63.63;39.00;;;;;;;16.26;100.00;101724.81;3601730;39;20030;-63
2021/06/27 04:15:10;;;;;;;65.57;39.70;;;;;;;16.28;100.00;101726.38;3600682;39;20333;-63
2021/06/27 04:17:37;;;;;;;59.80;38.58;;;;;;;16.37;100.00;101721.88;3602262;39;20054;-63
2021/06/27 04:20:05;;;;;;;58.00;37.97;;;;;;;16.44;100.00;101717.56;3600858;39;20348;-64
2021/06/27 04:22:32;;;;;;;62.53;38.97;;;;;;;16.40;100.00;101720.72;3601783;39;20618;-64
2021/06/27 04:25:01;;;;;;;61.17;38.47;;;;;;;16.47;100.00;101713.66;3601902;39;20052;-63
2021/06/27 04:27:27;;;;;;;60.67;38.83;;;;;;;16.57;100.00;101719.03;3601289;39;20063;-63
2021/06/27 04:29:54;;;;;;;57.00;37.28;;;;;;;16.53;100.00;101714.91;3600848;39;20072;-63
2021/06/27 04:32:22;;;;;;;57.22;37.72;;;;;;;16.72;100.00;101706.59;3601254;39;20060;-63
2021/06/27 04:34:48;;;;;;;57.53;37.15;;;;;;;16.66;100.00;101704.50;3601194;39;20046;-63
2021/06/27 04:37:14;;;;;;;56.90;36.38;;;;;;;16.79;100.00;101713.13;3600415;39;20087;-63
2021/06/27 04:39:41;;;;;;;54.40;36.03;;;;;;;16.67;100.00;101702.66;3601479;39;20067;-63
2021/06/27 04:42:07;;;;;;;57.13;37.75;;;;;;;16.67;100.00;101702.66;3601543;39;20070;-63
2021/06/27 04:44:34;;;;;;;54.75;36.00;;;;;;;16.69;100.00;101704.19;3601455;39;20061;-63
2021/06/27 04:47:00;;;;;;;57.30;36.38;;;;;;;16.72;100.00;101706.59;3602098;39;20037;-64
2021/06/27 04:49:28;;;;;;;57.10;37.88;;;;;;;16.82;100.00;101712.78;3600890;39;20058;-64
2021/06/27 04:51:55;;;;;;;55.47;35.85;;;;;;;16.90;100.00;101705.75;3601925;39;20035;-64
2021/06/27 04:54:21;;;;;;;52.78;34.58;;;;;;;16.90;100.00;101705.75;3600511;39;20078;-63
2021/06/27 04:56:48;;;;;;;54.35;35.95;;;;;;;16.95;100.00;101698.84;3601602;39;20059;-63
2021/06/27 04:59:14;;;;;;;52.78;36.03;;;;;;;17.17;100.00;101711.06;3600509;39;20096;-63
2021/06/27 05:01:41;;;;;;;53.80;35.28;;;;;;;17.55;100.00;101704.50;3601631;39;20170;-63
2021/06/27 05:04:07;;;;;;;50.70;35.05;;;;;;;17.48;100.00;101697.00;3600918;39;20069;-64
2021/06/27 05:06:35;;;;;;;55.95;36.10;;;;;;;17.84;100.00;101691.41;3601597;39;21190;-63
2021/06/27 05:09:01;;;;;;;49.65;34.47;;;;;;;18.44;100.00;101689.56;3600345;39;20051;-64
2021/06/27 05:11:28;;;;;;;49.72;31.17;;;;;;;19.03;100.00;101678.53;3600732;39;20069;-62
2021/06/27 05:13:54;;;;;;;45.60;31.20;;;;;;;19.05;100.00;101681.06;3601008;39;20421;-64
2021/06/27 05:16:21;;;;;;;45.33;31.52;;;;;;;18.62;100.00;101678.50;3600616;39;20052;-63
2021/06/27 05:18:47;;;;;;;43.70;31.38;;;;;;;18.24;100.00;101679.97;3600189;39;20042;-62
2021/06/27 05:21:14;;;;;;;44.13;30.50;;;;;;;18.26;100.00;101676.06;3600240;39;20043;-62
2021/06/27 05:23:41;;;;;;;46.70;32.53;;;;;;;18.29;100.00;101674.91;3600921;39;20048;-63
2021/06/27 05:26:08;;;;;;;49.28;33.42;;;;;;;18.16;100.00;101681.66;3600611;39;20048;-63
2021/06/27 05:28:34;;;;;;;45.97;32.03;;;;;;;18.42;100.00;101677.97;3601227;39;20080;-63
2021/06/27 05:31:01;;;;;;;48.15;33.95;;;;;;;18.13;100.00;101671.09;3600513;39;20043;-63
2021/06/27 05:33:27;;;;;;;46.70;32.33;;;;;;;18.16;100.00;101672.63;3601079;39;20068;-63
2021/06/27 05:35:54;;;;;;;46.85;32.80;;;;;;;18.05;100.00;101673.81;3601075;39;20047;-63
2021/06/27 05:38:21;;;;;;;42.75;32.33;;;;;;;18.29;100.00;101669.44;3600883;39;20055;-63
2021/06/27 05:40:49;;;;;;;46.03;32.03;;;;;;;18.44;100.00;101672.34;3601116;39;20051;-63
2021/06/27 05:43:15;;;;;;;46.88;31.17;;;;;;;18.51;100.00;101671.50;3600237;39;20040;-64
2021/06/27 05:45:41;;;;;;;46.63;31.58;;;;;;;18.62;100.00;101664.03;3600995;39;20316;-63
2021/06/27 05:48:09;;;;;;;44.30;30.55;;;;;;;18.71;100.00;101658.41;3600807;39;20428;-63
2021/06/27 05:50:35;;;;;;;43.65;31.10;;;;;;;18.62;100.00;101674.94;3600102;39;20044;-63
2021/06/27 05:53:02;;;;;;;42.80;29.75;;;;;;;18.85;100.00;101659.59;3600679;39;20055;-64
2021/06/27 05:55:29;;;;;;;41.53;29.45;;;;;;;18.85;100.00;101648.69;3601889;39;20050;-63
2021/06/27 05:57:56;;;;;;;40.47;29.05;;;;;;;18.98;100.00;101650.09;3599739;39;20044;-63
2021/06/27 06:00:23;;;;;;;41.70;29.50;;;;;;;19.15;100.00;101653.63;3600296;39;20067;-63
2021/06/27 06:02:49;;;;;;;39.53;28.75;;;;;;;19.22;100.00;101650.00;3601010;39;20085;-63
2021/06/27 06:05:16;;;;;;;36.92;27.88;;;;;;;19.16;100.00;101658.06;3600590;39;20093;-63
2021/06/27 06:07:42;;;;;;;42.80;29.65;;;;;;;19.18;100.00;101653.28;3600857;39;20050;-63
2021/06/27 06:10:10;;;;;;;42.60;29.67;;;;;;;19.28;100.00;101653.09;3600081;39;20070;-63
2021/06/27 06:15:28;;;;;;;40.97;28.05;;;;;;;19.22;100.00;101650.00;3605296;23;20136;-63
2021/06/27 06:17:55;;;;;;;41.47;28.45;;;;;;;19.53;100.00;101654.72;3580199;40;20055;-63
2021/06/27 06:20:21;;;;;;;37.83;27.65;;;;;;;19.55;100.00;101655.41;3580130;40;20064;-62
2021/06/27 06:22:48;;;;;;;36.58;27.05;;;;;;;19.65;100.00;101659.78;3579374;40;20055;-63
2021/06/27 06:25:14;;;;;;;38.08;28.23;;;;;;;19.49;100.00;101655.25;3579980;40;20056;-63
2021/06/27 06:27:41;;;;;;;36.97;27.88;;;;;;;19.69;100.00;101658.41;3580493;40;20120;-63
2021/06/27 06:30:08;;;;;;;36.90;27.52;;;;;;;19.81;100.00;101654.28;3578606;40;20029;-64
2021/06/27 06:32:36;;;;;;;37.85;28.30;;;;;;;20.04;100.00;101653.50;3580440;40;20041;-63
2021/06/27 06:35:02;;;;;;;37.80;25.13;;;;;;;20.24;100.00;101649.28;3579612;40;20088;-64
2021/06/27 06:37:29;;;;;;;34.03;25.67;;;;;;;20.13;100.00;101653.25;3580438;40;20043;-63
2021/06/27 06:39:55;;;;;;;34.00;25.67;;;;;;;20.49;100.00;101646.34;3580496;40;20410;-63
2021/06/27 06:42:22;;;;;;;34.65;24.90;;;;;;;20.62;100.00;101646.59;3579757;40;20079;-63
2021/06/27 06:44:48;;;;;;;34.92;24.98;;;;;;;20.60;100.00;101654.16;3580060;40;20055;-64
2021/06/27 06:47:15;;;;;;;33.70;25.20;;;;;;;20.82;100.00;101651.59;3578687;40;20132;-63
2021/06/27 06:49:43;;;;;;;32.30;24.25;;;;;;;21.08;100.00;101659.41;3580333;40;20044;-64
2021/06/27 06:52:09;;;;;;;31.20;24.90;;;;;;;21.17;100.00;101665.63;3579933;40;20367;-63
2021/06/27 06:54:36;;;;;;;31.38;23.95;;;;;;;21.17;100.00;101665.63;3580073;40;20344;-63
2021/06/27 06:57:03;;;;;;;30.05;23.00;;;;;;;21.30;100.00;101657.63;3579473;40;20036;-63
2021/06/27 06:59:29;;;;;;;29.23;22.75;;;;;;;21.20;100.00;101657.06;3579622;40;20059;-63
2021/06/27 07:01:55;;;;;;;31.35;22.95;;;;;;;21.26;100.00;101648.09;3579575;40;20064;-64
2021/06/27 07:04:22;;;;;;;32.15;24.05;;;;;;;21.21;100.00;101656.00;3579104;40;20154;-63
2021/06/27 07:06:50;;;;;;;25.92;21.58;;;;;;;21.43;100.00;101664.34;3580536;40;20052;-63
2021/06/27 07:09:16;;;;;;;33.50;22.48;;;;;;;21.49;100.00;101660.84;3578219;40;20049;-63
2021/06/27 07:11:43;;;;;;;28.85;20.75;;;;;;;21.22;100.00;101657.72;3580363;40;20053;-63
2021/06/27 07:14:09;;;;;;;27.10;21.30;;;;;;;21.36;100.00;101658.75;3579198;40;20416;-63
2021/06/27 07:16:36;;;;;;;32.17;21.52;;;;;;;21.30;100.00;101657.63;3580076;40;20077;-63
2021/06/27 07:19:03;;;;;;;26.15;20.58;;;;;;;21.24;100.00;101663.84;3579201;40;20045;-64
2021/06/27 07:21:30;;;;;;;25.38;20.85;;;;;;;21.10;100.00;101661.97;3579161;40;20627;-63
2021/06/27 07:23:58;;;;;;;27.30;20.92;;;;;;;21.07;100.00;101660.44;3579705;40;21061;-63
2021/06/27 07:26:25;;;;;;;26.75;20.95;;;;;;;21.20;100.00;101658.94;3578695;40;20150;-64
2021/06/27 07:28:52;;;;;;;29.40;22.15;;;;;;;21.11;100.00;101666.38;3580194;40;20099;-63
2021/06/27 07:31:18;;;;;;;33.70;24.17;;;;;;;21.00;100.00;101660.31;3578703;40;20092;-63
2021/06/27 07:33:45;;;;;;;29.25;23.48;;;;;;;21.02;100.00;101656.56;3580214;40;20081;-64
2021/06/27 07:36:12;;;;;;;27.80;21.80;;;;;;;21.15;100.00;101662.22;3579169;40;20396;-63
2021/06/27 07:38:38;;;;;;;28.23;21.58;;;;;;;20.94;100.00;101658.31;3580850;40;20371;-63
2021/06/27 07:41:06;;;;;;;27.30;22.40;;;;;;;20.99;100.00;101657.75;3579417;40;20061;-64
2021/06/27 07:43:34;;;;;;;27.60;21.63;;;;;;;21.09;100.00;101660.25;3582040;40;20068;-63
2021/06/27 07:46:00;;;;;;;32.65;22.15;;;;;;;21.05;100.00;101664.38;3581121;40;20369;-63
2021/06/27 07:48:27;;;;;;;26.88;21.30;;;;;;;21.21;100.00;101666.13;3581109;39;20061;-63
2021/06/27 07:50:53;;;;;;;30.25;22.35;;;;;;;21.07;100.00;101665.03;3580531;40;20084;-63
2021/06/27 07:53:20;;;;;;;28.83;21.58;;;;;;;21.29;100.00;101669.63;3581729;40;20054;-63
2021/06/27 07:55:48;;;;;;;30.15;22.85;;;;;;;21.30;100.00;101660.38;3581192;40;20092;-65
2021/06/27 07:58:17;;;;;;;33.83;25.58;;;;;;;21.49;100.00;101663.56;3580791;40;20423;-62
2021/06/27 08:00:43;;;;;;;33.17;25.80;;;;;;;21.60;100.00;101665.88;3580984;40;20412;-63
2021/06/27 08:03:10;;;;;;;35.00;25.77;;;;;;;21.32;100.00;101658.28;3580953;40;20052;-63
2021/06/27 08:05:36;;;;;;;32.78;26.33;;;;;;;21.51;100.00;101658.81;3581516;40;20080;-64
2021/06/27 08:08:03;;;;;;;32.97;26.00;;;;;;;21.78;100.00;101659.16;3580986;40;20070;-64
2021/06/27 08:10:30;;;;;;;34.22;26.05;;;;;;;21.63;100.00;101670.13;3581010;40;20052;-64
2021/06/27 08:12:57;;;;;;;31.92;25.17;;;;;;;22.04;100.00;101673.19;3582120;40;20059;-63
2021/06/27 08:15:25;;;;;;;32.67;24.70;;;;;;;22.16;100.00;101676.28;3579004;40;20048;-62
2021/06/27 08:17:52;;;;;;;34.83;26.15;;;;;;;21.80;100.00;101665.28;3580541;40;20642;-62
2021/06/27 08:20:20;;;;;;;32.97;25.02;;;;;;;21.88;100.00;101666.03;3581025;39;20045;-62
2021/06/27 08:22:48;;;;;;;29.38;23.35;;;;;;;22.42;100.00;101663.09;3581936;40;20500;-63
2021/06/27 08:25:16;;;;;;;31.10;23.77;;;;;;;22.73;100.00;101662.75;3580657;40;20067;-62
2021/06/27 08:27:43;;;;;;;29.90;23.98;;;;;;;23.01;100.00;101662.78;3581623;40;20045;-62
2021/06/27 08:30:11;;;;;;;29.33;24.17;;;;;;;22.86;100.00;101668.34;3580411;40;20385;-62
2021/06/27 08:32:43;;;;;;;29.02;22.58;;;;;;;23.36;100.00;101664.75;3582039;39;20068;-62
2021/06/27 08:35:11;;;;;;;28.85;23.45;;;;;;;23.50;100.00;101660.16;3580649;40;20128;-63
2021/06/27 08:37:38;;;;;;;29.30;22.45;;;;;;;23.59;100.00;101656.22;3581442;40;20045;-62
2021/06/27 08:40:06;;;;;;;27.55;22.20;;;;;;;23.95;100.00;101660.63;3579877;40;20053;-63
2021/06/27 08:42:32;;;;;;;27.37;22.50;;;;;;;23.52;100.00;101658.91;3580938;40;20077;-63
2021/06/27 08:44:59;;;;;;;25.80;20.50;;;;;;;23.54;100.00;101662.34;3581488;40;20040;-62
2021/06/27 08:47:26;;;;;;;27.98;21.38;;;;;;;23.51;100.00;101668.22;3579823;39;20074;-63
2021/06/27 08:49:54;;;;;;;27.77;21.08;;;;;;;23.48;100.00;101657.63;3580418;40;20092;-63
2021/06/27 08:52:22;;;;;;;31.23;21.83;;;;;;;23.42;100.00;101651.06;3580934;40;20394;-63
2021/06/27 08:54:50;;;;;;;26.83;20.00;;;;;;;23.32;100.00;101646.97;3580894;40;20050;-63
2021/06/27 08:57:18;;;;;;;23.83;19.85;;;;;;;23.70;100.00;101641.88;3581178;40;20130;-63
2021/06/27 08:59:45;;;;;;;26.25;20.45;;;;;;;23.64;100.00;101642.69;3581789;40;20052;-63
2021/06/27 09:02:12;;;;;;;26.30;20.25;;;;;;;23.82;100.00;101653.13;3580453;40;20053;-63
2021/06/27 09:04:40;;;;;;;25.90;20.27;;;;;;;23.82;100.00;101646.81;3580862;40;20079;-63
2021/06/27 09:07:29;;;;;;;26.88;20.85;;;;;;;23.83;100.00;101648.50;3580035;40;20445;-63
2021/06/27 09:09:56;;;;;;;27.08;20.48;;;;;;;23.72;100.00;101645.28;3579730;40;20056;-64
2021/06/27 09:12:23;;;;;;;25.10;20.10;;;;;;;23.32;100.00;101645.09;3579425;40;20065;-63
2021/06/27 09:14:54;;;;;;;25.88;21.05;;;;;;;23.27;100.00;101639.34;3580173;40;20044;-63
2021/06/27 09:17:23;;;;;;;26.40;21.35;;;;;;;23.67;100.00;101639.53;3579549;40;20502;-63
2021/06/27 09:19:57;;;;;;;;;;;;;;;23.66;100.00;101637.00;3580204;40;20091;-64
2021/06/27 09:22:28;;;;;;;24.92;20.05;;;;;;;23.92;100.00;101639.06;3579362;40;20014;-64
2021/06/27 09:24:55;;;;;;;24.48;18.42;;;;;;;24.13;100.00;101636.16;3580746;40;20407;-64
2021/06/27 09:27:24;;;;;;;25.10;20.00;;;;;;;24.36;100.00;101631.34;3579595;40;20071;-64
2021/06/27 09:29:53;;;;;;;23.75;19.08;;;;;;;24.71;100.00;101626.53;3580304;39;20068;-63
2021/06/27 09:32:21;;;;;;;22.73;18.27;;;;;;;25.05;100.00;101621.84;3580218;40;20052;-63
2021/06/27 09:34:48;;;;;;;25.10;18.48;;;;;;;24.74;100.00;101625.28;3581168;40;20053;-63
2021/06/27 09:37:17;;;;;;;24.85;18.98;;;;;;;25.06;100.00;101619.94;3579698;40;20326;-64
2021/06/27 09:39:59;;;;;;;21.73;18.38;;;;;;;25.44;100.00;101620.09;3580627;40;20468;-63
2021/06/27 09:42:26;;;;;;;24.42;19.10;;;;;;;25.22;100.00;101615.88;3580282;40;20080;-63
2021/06/27 09:45:02;;;;;;;22.75;18.45;;;;;;;25.41;100.00;101628.81;3580621;40;20037;-63
2021/06/27 09:47:29;;;;;;;23.73;18.10;;;;;;;25.49;100.00;101620.28;3580746;39;20826;-64
2021/06/27 09:49:55;;;;;;;22.92;18.13;;;;;;;25.05;100.00;101613.59;3580523;40;20068;-64
2021/06/27 09:52:36;;;;;;;19.85;17.23;;;;;;;25.52;100.00;101611.56;3579921;40;20079;-64
2021/06/27 09:55:08;;;;;;;20.63;17.48;;;;;;;25.64;100.00;101609.00;3581137;40;20112;-64
2021/06/27 09:57:34;;;;;;;21.08;17.58;;;;;;;25.75;100.00;101607.47;3581189;40;20295;-64
2021/06/27 10:00:01;;;;;;;24.98;18.42;;;;;;;25.76;100.00;101602.78;3581306;40;20056;-61
2021/06/27 10:02:27;;;;;;;21.00;16.52;;;;;;;26.09;100.00;101602.66;3579076;40;20053;-62
2021/06/27 10:04:54;;;;;;;19.42;16.63;;;;;;;26.09;100.00;101591.63;3579641;40;20057;-63
2021/06/27 10:07:20;;;;;;;18.25;15.10;;;;;;;26.40;100.00;101592.69;3580221;40;20097;-63
2021/06/27 10:09:47;;;;;;;17.83;14.80;;;;;;;26.77;100.00;101591.97;3580772;40;20047;-63
2021/06/27 10:12:18;;;;;;;15.98;14.27;;;;;;;26.88;100.00;101588.47;3579254;40;20049;-63
2021/06/27 10:14:57;;;;;;;18.00;14.40;;;;;;;26.64;100.00;101590.16;3579419;40;20298;-62
2021/06/27 10:17:25;;;;;;;20.38;15.85;;;;;;;26.68;100.00;101583.16;3580175;40;20059;-66
2021/06/27 10:19:54;;;;;;;17.92;14.65;;;;;;;26.63;100.00;101580.16;3580779;40;20049;-63
2021/06/27 10:22:21;;;;;;;18.55;15.23;;;;;;;26.72;100.00;101573.31;3580131;40;20061;-63
2021/06/27 10:24:48;;;;;;;14.68;12.43;;;;;;;26.79;100.00;101573.25;3580653;40;20037;-64
2021/06/27 10:27:16;;;;;;;19.17;13.95;;;;;;;26.92;100.00;101576.72;3579416;40;20049;-64
2021/06/27 10:29:45;;;;;;;21.25;16.00;;;;;;;26.68;100.00;101574.84;3579155;40;20060;-64
2021/06/27 10:32:12;;;;;;;18.30;14.65;;;;;;;26.67;100.00;101571.22;3579817;40;20053;-63
2021/06/27 10:34:39;;;;;;;18.38;15.77;;;;;;;26.72;100.00;101562.25;3579749;39;20122;-64
2021/06/27 10:37:09;;;;;;;17.90;14.80;;;;;;;26.84;100.00;101566.00;3579912;40;20092;-63
2021/06/27 10:39:36;;;;;;;16.08;13.90;;;;;;;26.61;100.00;101565.75;3580787;40;20089;-63
2021/06/27 10:42:04;;;;;;;15.80;13.93;;;;;;;26.81;100.00;101565.59;3578980;40;20206;-62
2021/06/27 10:45:01;;;;;;;16.10;14.27;;;;;;;26.57;100.00;101568.09;3580884;40;20288;-63
2021/06/27 10:47:33;;;;;;;15.73;13.77;;;;;;;26.42;100.00;101570.38;3580018;40;20048;-64
2021/06/27 10:50:03;;;;;;;16.65;12.65;;;;;;;26.51;100.00;101556.03;3579865;40;20077;-63
2021/06/27 10:52:29;;;;;;;16.88;12.35;;;;;;;26.56;100.00;101564.50;3580448;40;20501;-63
2021/06/27 10:55:20;;;;;;;15.70;13.20;;;;;;;26.46;100.00;101558.66;3581026;40;20055;-63
2021/06/27 10:57:55;;;;;;;15.20;11.95;;;;;;;26.82;100.00;101557.06;3577801;40;20084;-63
2021/06/27 11:00:23;;;;;;;13.63;11.02;;;;;;;27.26;100.00;101554.25;3580371;40;20309;-63
2021/06/27 11:02:50;;;;;;;13.35;11.45;;;;;;;27.53;100.00;101560.34;3581305;40;20103;-64
2021/06/27 11:08:39;;;;;;;12.68;10.73;;;;;;;27.25;100.00;101556.19;3637829;23;20044;-64